Time;durP1;ratioP1;P1;durP2;ratioP2;P2;SDS_P1;SDS_P2;PMS_P1;PMS_P2;Temp;Humidity;BMP_temperature;BMP_pressure;BME280_temperature;BME280_humidity;BME280_pressure;Samples;Min_cycle;Max_cycle;Signal;HPM_P1;HPM_P2
2021/01/04 00:00:42;;;;;;;;;23.25;19.50;;;;;11.97;50.92;98131.22;5994354;22;102574;-80
2021/01/04 00:03:21;;;;;;;;;27.00;20.00;;;;;11.97;50.63;98142.06;5998056;22;102714;-79
2021/01/04 00:05:57;;;;;;;;;30.75;24.75;;;;;11.96;50.23;98132.25;5983673;22;104563;-79
2021/01/04 00:08:38;;;;;;;;;28.25;25.00;;;;;11.96;50.67;98122.25;6000655;22;104565;-80
2021/01/04 00:11:42;;;;;;;;;29.00;24.50;;;;;11.96;50.33;98119.53;5991644;22;102677;-80
2021/01/04 00:14:31;;;;;;;;;26.75;24.50;;;;;11.96;50.55;98116.84;5929266;22;102705;-79
2021/01/04 00:16:58;;;;;;;;;28.00;24.50;;;;;11.96;50.73;98111.41;5997941;22;104665;-80
2021/01/04 00:20:03;;;;;;;;;25.75;23.00;;;;;11.97;50.89;98112.25;5988730;22;103942;-79
2021/01/04 00:22:52;;;;;;;;;26.00;21.75;;;;;11.96;50.91;98105.16;5940965;22;102798;-79
2021/01/04 00:25:28;;;;;;;;;25.75;23.50;;;;;11.97;50.78;98104.94;5845388;22;103001;-80
2021/01/04 00:28:06;;;;;;;;;27.25;22.50;;;;;11.96;50.14;98097.88;5957266;22;102487;-79
2021/01/04 00:30:42;;;;;;;;;30.50;21.50;;;;;11.97;50.59;98099.53;5975167;22;105617;-79
2021/01/04 00:33:31;;;;;;;;;25.00;24.00;;;;;11.96;50.99;98091.63;5995506;22;102807;-79
2021/01/04 00:36:00;;;;;;;;;28.25;22.00;;;;;11.94;50.77;98108.09;5963218;22;103047;-79
2021/01/04 00:38:54;;;;;;;;;25.50;19.50;;;;;11.95;50.25;98111.63;5942066;22;102832;-79
2021/01/04 00:41:29;;;;;;;;;27.50;23.75;;;;;11.94;50.41;98113.50;5825107;22;108693;-79
2021/01/04 00:43:56;;;;;;;;;27.75;22.00;;;;;11.91;50.42;98115.84;5967168;22;102547;-80
2021/01/04 00:46:31;;;;;;;;;27.25;23.50;;;;;11.95;50.39;98114.34;5932929;22;102655;-79
2021/01/04 00:49:01;;;;;;;;;22.00;18.75;;;;;11.94;50.60;98112.69;5939576;22;102768;-80
2021/01/04 00:51:53;;;;;;;;;29.50;25.00;;;;;11.95;50.90;98114.34;5962793;22;104307;-79
2021/01/04 00:54:26;;;;;;;;;25.25;20.25;;;;;11.96;50.84;98118.72;5865942;22;102840;-79
2021/01/04 00:57:09;;;;;;;;;26.50;22.50;;;;;11.95;50.31;98119.75;5966515;22;102479;-79
2021/01/04 01:00:03;;;;;;;;;26.50;24.75;;;;;11.94;51.07;98126.22;5936286;22;102618;-79
2021/01/04 01:03:04;;;;;;;;;29.00;23.25;;;;;11.95;50.68;98127.88;5865044;22;108615;-79
2021/01/04 01:05:45;;;;;;;;;24.25;23.50;;;;;11.96;50.52;98126.84;5882282;22;102889;-79
2021/01/04 01:08:15;;;;;;;;;27.50;24.25;;;;;11.94;50.38;98128.94;5920318;22;102672;-79
2021/01/04 01:11:07;;;;;;;;;29.00;25.00;;;;;11.94;50.29;98121.63;5953706;22;102785;-79
2021/01/04 01:14:08;;;;;;;;;27.75;25.25;;;;;11.94;50.28;98128.94;5969522;22;104227;-79
2021/01/04 01:17:22;;;;;;;;;33.25;25.25;;;;;11.91;50.69;98122.09;5895604;22;102945;-79
2021/01/04 01:19:51;;;;;;;;;28.50;21.25;;;;;11.93;50.84;98132.72;5826466;22;102831;-79
2021/01/04 01:22:30;;;;;;;;;26.25;23.50;;;;;11.94;50.27;98123.50;5948561;22;102778;-79
2021/01/04 01:25:05;;;;;;;;;27.75;23.75;;;;;11.91;50.62;98119.38;5971032;22;104350;-79
2021/01/04 01:28:02;;;;;;;;;35.00;28.75;;;;;11.91;50.29;98118.53;5944524;22;102936;-79
2021/01/04 01:30:44;;;;;;;;;28.00;25.50;;;;;11.90;50.86;98114.16;5895123;22;102824;-79
2021/01/04 01:33:35;;;;;;;;;28.50;26.00;;;;;11.90;50.20;98117.72;5954894;22;104258;-78
2021/01/04 01:36:18;;;;;;;;;25.75;25.50;;;;;11.90;51.15;98103.34;5974118;22;108744;-79
2021/01/04 01:39:13;;;;;;;;;26.00;22.00;;;;;11.90;50.53;98111.47;5995772;22;102766;-79
2021/01/04 01:41:53;;;;;;;;;35.75;25.25;;;;;11.89;50.24;98113.34;5997975;22;102784;-79
2021/01/04 01:44:42;;;;;;;;;31.75;23.25;;;;;11.87;50.96;98106.50;5922333;22;102826;-79
2021/01/04 01:47:18;;;;;;;;;29.25;25.75;;;;;11.88;50.53;98114.41;6024666;22;109594;-79
2021/01/04 01:50:03;;;;;;;;;21.00;18.00;;;;;11.89;50.33;98115.22;5997578;22;102776;-79
2021/01/04 01:52:39;;;;;;;;;28.75;25.00;;;;;11.87;50.90;98107.31;6018530;22;102725;-79
2021/01/04 01:55:40;;;;;;;;;30.50;25.75;;;;;11.88;51.17;98113.56;6023566;22;102850;-80
2021/01/04 01:58:38;;;;;;;;;20.00;17.50;;;;;11.88;51.06;98121.72;5902540;22;109139;-79
2021/01/04 02:01:26;;;;;;;;;27.50;21.25;;;;;11.87;50.42;98118.16;5922854;22;102819;-79
2021/01/04 02:03:55;;;;;;;;;26.50;23.75;;;;;11.87;51.17;98129.00;5872999;22;102614;-79
2021/01/04 02:06:52;;;;;;;;;29.75;25.00;;;;;11.85;50.70;98114.00;5986188;22;104319;-79
2021/01/04 02:09:42;;;;;;;;;25.25;23.75;;;;;11.87;50.36;98120.03;5831081;22;108399;-79
2021/01/04 02:12:14;;;;;;;;;28.75;25.75;;;;;11.87;50.48;98117.34;5991438;22;102736;-79
2021/01/04 02:14:46;;;;;;;;;30.00;25.00;;;;;11.86;50.99;98115.66;5996359;22;102775;-79
2021/01/04 02:17:27;;;;;;;;;26.50;24.50;;;;;11.85;50.64;98128.38;5992319;22;102707;-79
2021/01/04 02:20:09;;;;;;;;;35.00;24.25;;;;;11.84;50.52;98124.00;6001274;22;104070;-79
2021/01/04 02:23:09;;;;;;;;;27.00;24.75;;;;;11.85;50.89;98125.66;5988088;22;102742;-79
2021/01/04 02:25:38;;;;;;;;;24.00;20.50;;;;;11.86;50.76;98124.63;5938137;22;102791;-80
2021/01/04 02:28:09;;;;;;;;;29.50;26.25;;;;;11.86;50.81;98115.66;5960698;22;102815;-80
2021/01/04 02:30:37;;;;;;;;;31.00;23.50;;;;;11.86;50.80;98121.09;6020064;22;104251;-79
2021/01/04 02:33:05;;;;;;;;;32.75;26.50;;;;;11.85;50.71;98112.13;5989310;22;102832;-80
2021/01/04 02:35:32;;;;;;;;;28.25;24.50;;;;;11.85;50.87;98108.59;5973303;22;102903;-79
2021/01/04 02:37:59;;;;;;;;;28.75;24.00;;;;;11.82;51.01;98104.44;5950832;22;102772;-80
2021/01/04 02:40:26;;;;;;;;;27.50;25.50;;;;;11.83;50.99;98108.00;5991325;22;104518;-79
2021/01/04 02:42:53;;;;;;;;;30.50;26.75;;;;;11.84;50.21;98109.66;5993610;22;102933;-79
2021/01/04 02:45:22;;;;;;;;;28.50;23.25;;;;;11.83;50.81;98110.69;6016887;22;102721;-79
2021/01/04 02:48:13;;;;;;;;;26.00;23.25;;;;;11.83;50.42;98121.53;5995898;22;102869;-79
2021/01/04 02:51:01;;;;;;;;;28.50;25.50;;;;;11.82;50.48;98119.88;5991687;22;108516;-80
2021/01/04 02:53:38;;;;;;;;;25.75;20.25;;;;;11.83;50.48;98121.53;5946977;22;102941;-79
2021/01/04 02:56:07;;;;;;;;;26.75;24.75;;;;;11.83;50.93;98126.94;6014850;22;102489;-79
2021/01/04 02:58:58;;;;;;;;;25.50;22.75;;;;;11.83;50.89;98118.81;5993876;22;102775;-80
2021/01/04 03:01:29;;;;;;;;;27.50;24.75;;;;;11.81;50.52;98118.19;5891291;22;108584;-79
2021/01/04 03:03:56;;;;;;;;;29.75;26.00;;;;;11.82;50.48;98114.44;5949549;22;102857;-79
2021/01/04 03:06:37;;;;;;;;;30.50;25.75;;;;;11.80;50.25;98105.69;5965209;22;102778;-79
2021/01/04 03:09:07;;;;;;;;;29.25;22.25;;;;;11.82;50.78;98114.44;5993366;22;102843;-79
2021/01/04 03:11:34;;;;;;;;;26.75;23.75;;;;;11.82;50.77;98119.88;6022533;22;103915;-79
2021/01/04 03:14:04;;;;;;;;;29.50;25.50;;;;;11.81;50.59;98121.75;5993668;22;102612;-80
2021/01/04 03:17:07;;;;;;;;;27.00;25.75;;;;;11.81;50.70;98124.44;5969327;22;102832;-79
2021/01/04 03:19:35;;;;;;;;;26.75;25.00;;;;;11.80;50.83;98121.94;5927208;22;103050;-80
2021/01/04 03:22:05;;;;;;;;;28.25;25.25;;;;;11.81;50.65;98121.75;5960655;22;104246;-79
2021/01/04 03:24:31;;;;;;;;;23.00;20.25;;;;;11.78;50.77;98127.63;6015279;22;102603;-79
2021/01/04 03:27:01;;;;;;;;;33.75;30.00;;;;;11.80;50.46;98139.03;5990372;22;102862;-79
2021/01/04 03:29:29;;;;;;;;;28.25;24.00;;;;;11.80;50.33;98139.03;5971068;22;102733;-79
2021/01/04 03:31:55;;;;;;;;;25.75;21.00;;;;;11.80;50.60;98140.91;5990007;22;103978;-79
2021/01/04 03:34:22;;;;;;;;;26.25;23.75;;;;;11.81;50.59;98145.28;6019791;22;102813;-79
2021/01/04 03:36:49;;;;;;;;;27.00;26.50;;;;;11.78;50.47;98146.56;6018813;22;102957;-79
2021/01/04 03:39:16;;;;;;;;;29.00;25.00;;;;;11.80;50.37;98154.47;6022070;22;102774;-79
2021/01/04 03:41:42;;;;;;;;;25.75;23.50;;;;;11.80;50.89;98151.75;6027393;22;103785;-79
2021/01/04 03:44:09;;;;;;;;;30.25;26.00;;;;;11.79;51.00;98152.81;6022159;22;102710;-79
2021/01/04 03:46:36;;;;;;;;;30.25;27.25;;;;;11.79;50.44;98152.81;6017194;22;102589;-79
2021/01/04 03:49:03;;;;;;;;;34.00;26.25;;;;;11.79;50.47;98164.50;6029366;22;103975;-79
2021/01/04 03:51:30;;;;;;;;;31.00;26.75;;;;;11.78;50.65;98162.00;6017697;22;104001;-79
2021/01/04 03:53:56;;;;;;;;;27.50;23.25;;;;;11.79;50.75;98158.25;6027065;22;102746;-80
2021/01/04 03:56:23;;;;;;;;;29.25;25.75;;;;;11.78;51.05;98156.56;6024119;22;102672;-79
2021/01/04 03:58:49;;;;;;;;;33.25;28.25;;;;;11.76;50.62;98164.91;6015883;22;102828;-79
2021/01/04 04:01:16;;;;;;;;;29.50;26.50;;;;;11.76;50.93;98161.38;6024985;22;104216;-79
2021/01/04 04:03:43;;;;;;;;;32.75;27.25;;;;;11.77;50.32;98168.44;6024638;22;102542;-79
2021/01/04 04:06:11;;;;;;;;;27.75;25.25;;;;;11.74;50.66;98145.34;6012028;22;102775;-79
2021/01/04 04:08:40;;;;;;;;;24.00;22.00;;;;;11.76;50.31;98155.94;5970027;22;103046;-79
2021/01/04 04:11:08;;;;;;;;;29.00;26.50;;;;;11.75;50.56;98157.03;5963336;22;104223;-79
2021/01/04 04:13:34;;;;;;;;;29.25;26.50;;;;;11.80;50.82;98154.47;6017356;22;104165;-79
2021/01/04 04:16:01;;;;;;;;;27.00;19.50;;;;;11.83;50.53;98154.03;6020816;22;102794;-80
2021/01/04 04:18:28;;;;;;;;;28.75;26.50;;;;;11.80;50.61;98152.59;6002215;22;102968;-80
2021/01/04 04:20:55;;;;;;;;;22.75;16.75;;;;;11.86;50.24;98159.00;6018928;22;103876;-79
2021/01/04 04:23:22;;;;;;;;;27.25;23.00;;;;;11.89;50.38;98158.56;5984861;22;102767;-79
2021/01/04 04:25:48;;;;;;;;;26.75;23.00;;;;;11.92;50.23;98163.56;6017402;22;102498;-79
2021/01/04 04:28:15;;;;;;;;;25.00;21.25;;;;;11.95;50.85;98157.69;6024480;22;102795;-79
2021/01/04 04:30:41;;;;;;;;;26.75;22.00;;;;;11.99;50.35;98145.34;6023161;22;103885;-79
2021/01/04 04:33:08;;;;;;;;;24.50;20.50;;;;;12.02;50.42;98150.34;6028675;22;102748;-79
2021/01/04 04:35:35;;;;;;;;;25.75;22.00;;;;;12.05;49.94;98158.03;6024933;22;102700;-79
2021/01/04 04:38:01;;;;;;;;;28.00;23.50;;;;;12.06;50.14;98151.56;6024009;22;102668;-79
2021/01/04 04:40:32;;;;;;;;;24.00;20.75;;;;;12.08;50.49;98135.91;6027999;22;103806;-79
2021/01/04 04:43:10;;;;;;;;;23.75;22.75;;;;;12.09;50.00;98159.25;6021691;22;102764;-79
2021/01/04 04:45:38;;;;;;;;;26.75;25.50;;;;;12.12;50.55;98158.78;5976110;22;102569;-79
2021/01/04 04:48:26;;;;;;;;;27.50;25.25;;;;;12.14;49.83;98166.72;5999816;22;103314;-79
2021/01/04 04:51:20;;;;;;;;;26.00;19.75;;;;;12.13;50.67;98176.72;5917947;22;108637;-79
2021/01/04 04:53:50;;;;;;;;;27.00;23.50;;;;;12.15;50.07;98174.63;6001474;22;102747;-79
2021/01/04 04:56:38;;;;;;;;;32.50;26.75;;;;;12.16;50.01;98170.03;6025406;22;102662;-79
2021/01/04 04:59:24;;;;;;;;;20.50;19.00;;;;;12.17;49.62;98177.09;6002422;22;103117;-79
2021/01/04 05:02:01;;;;;;;;;32.50;28.25;;;;;12.17;50.66;98183.34;5948291;22;109084;-79
2021/01/04 05:04:40;;;;;;;;;27.25;25.00;;;;;12.18;50.25;98174.19;6001979;22;102861;-79
2021/01/04 05:07:19;;;;;;;;;28.25;24.00;;;;;12.17;49.56;98177.94;6026086;22;102566;-79
2021/01/04 05:10:09;;;;;;;;;28.25;24.75;;;;;12.17;49.79;98167.09;6023702;22;102894;-79
2021/01/04 05:12:57;;;;;;;;;30.50;26.75;;;;;12.17;49.96;98175.22;5979364;22;103799;-80
2021/01/04 05:15:29;;;;;;;;;25.25;21.75;;;;;12.16;49.93;98170.84;5922622;22;102824;-79
2021/01/04 05:18:08;;;;;;;;;19.25;18.00;;;;;12.14;50.57;98172.97;6031578;22;102533;-79
2021/01/04 05:21:04;;;;;;;;;25.75;22.50;;;;;12.15;50.47;98171.09;6027016;22;104796;-79
2021/01/04 05:23:46;;;;;;;;;28.25;23.25;;;;;12.15;49.88;98173.78;5894462;22;108706;-79
2021/01/04 05:26:25;;;;;;;;;27.75;24.00;;;;;12.11;49.93;98172.59;6026759;22;102664;-80
2021/01/04 05:29:23;;;;;;;;;26.75;24.00;;;;;12.10;49.78;98177.16;5976059;22;102872;-79
2021/01/04 05:32:02;;;;;;;;;28.00;23.50;;;;;12.11;50.30;98165.28;5941262;22;103019;-79
2021/01/04 05:34:37;;;;;;;;;24.50;21.75;;;;;12.09;50.33;98172.78;6022201;22;104489;-79
2021/01/04 05:37:07;;;;;;;;;24.75;23.25;;;;;12.08;49.80;98173.84;6027526;22;102696;-79
2021/01/04 05:39:48;;;;;;;;;27.00;23.75;;;;;12.08;50.22;98169.25;6025716;22;102749;-79
2021/01/04 05:42:39;;;;;;;;;25.50;22.00;;;;;12.06;50.06;98163.25;6000019;22;103048;-76
2021/01/04 05:45:22;;;;;;;;;28.25;24.00;;;;;12.05;50.02;98150.72;5896042;22;104173;-80
2021/01/04 05:48:19;;;;;;;;;23.00;21.25;;;;;12.05;49.93;98144.47;6001090;22;102768;-79
2021/01/04 05:51:07;;;;;;;;;21.25;17.00;;;;;12.04;50.49;98140.09;5997052;22;102801;-79
2021/01/04 05:53:34;;;;;;;;;26.50;22.75;;;;;12.05;49.98;98141.78;5981511;22;102709;-79
2021/01/04 05:56:01;;;;;;;;;23.75;22.00;;;;;12.04;50.02;98146.34;6027834;22;104563;-79
2021/01/04 05:58:32;;;;;;;;;23.00;21.25;;;;;12.00;49.99;98149.72;6001986;22;102947;-79
2021/01/04 06:01:10;;;;;;;;;27.00;23.75;;;;;12.03;50.29;98152.81;6002274;22;102530;-79
2021/01/04 06:03:37;;;;;;;;;27.50;24.75;;;;;12.02;50.44;98158.47;6002994;22;102991;-79
2021/01/04 06:06:09;;;;;;;;;24.00;20.75;;;;;12.03;50.59;98160.13;5995042;22;103978;-79
2021/01/04 06:08:36;;;;;;;;;28.00;21.00;;;;;12.01;49.96;98141.38;5998682;22;104116;-79
2021/01/04 06:11:10;;;;;;;;;26.50;23.50;;;;;12.02;50.25;98144.94;5999021;22;102731;-79
2021/01/04 06:13:41;;;;;;;;;21.75;18.25;;;;;12.01;49.99;98143.28;6024200;22;102756;-79
2021/01/04 06:16:15;;;;;;;;;25.50;20.75;;;;;11.98;50.15;98136.38;6014792;22;103870;-79
2021/01/04 06:18:47;;;;;;;;;20.75;18.50;;;;;11.99;50.11;98140.78;5975561;22;102666;-79
2021/01/04 06:21:24;;;;;;;;;25.25;19.00;;;;;11.99;49.84;98142.66;6023419;22;102813;-79
2021/01/04 06:23:51;;;;;;;;;21.25;19.50;;;;;11.99;50.23;98138.06;5920315;22;102814;-79
2021/01/04 06:26:21;;;;;;;;;27.50;23.00;;;;;11.99;50.35;98129.09;5978300;22;103972;-79
2021/01/04 06:28:55;;;;;;;;;23.50;18.75;;;;;11.97;50.35;98129.34;6027559;22;102754;-79
2021/01/04 06:31:30;;;;;;;;;24.00;20.25;;;;;11.97;49.98;98133.94;5998087;22;102964;-79
2021/01/04 06:34:04;;;;;;;;;25.25;20.50;;;;;11.96;50.55;98145.81;5998821;22;102773;-79
2021/01/04 06:36:34;;;;;;;;;27.50;25.00;;;;;11.96;50.50;98143.09;5997296;22;103851;-79
2021/01/04 06:39:17;;;;;;;;;25.50;21.00;;;;;11.95;50.48;98144.97;5973067;22;102899;-79
2021/01/04 06:41:44;;;;;;;;;20.50;18.75;;;;;11.95;50.11;98153.09;5998036;22;102877;-79
2021/01/04 06:44:14;;;;;;;;;24.25;21.00;;;;;11.96;50.54;98148.50;6029118;22;102782;-79
2021/01/04 06:47:03;;;;;;;;;22.75;21.25;;;;;11.94;50.70;98150.59;5972063;22;105821;-79
2021/01/04 06:49:36;;;;;;;;;24.00;21.00;;;;;11.91;50.27;98146.47;5925574;22;102850;-80
2021/01/04 06:52:33;;;;;;;;;23.25;20.25;;;;;11.93;50.80;98157.09;5957695;22;102834;-79
2021/01/04 06:55:27;;;;;;;;;25.75;18.75;;;;;11.93;49.97;98174.16;5954143;22;103153;-79
2021/01/04 06:58:09;;;;;;;;;23.25;19.75;;;;;11.92;50.13;98168.97;5942199;22;110201;-79
2021/01/04 07:01:04;;;;;;;;;15.50;15.25;;;;;11.91;50.65;98173.56;5997449;22;102614;-79
2021/01/04 07:03:43;;;;;;;;;23.25;20.25;;;;;11.91;50.63;98172.72;5899015;22;102810;-79
2021/01/04 07:06:12;;;;;;;;;19.50;17.50;;;;;11.90;50.07;98177.31;6027998;22;102774;-79
2021/01/04 07:08:51;;;;;;;;;24.75;19.00;;;;;11.89;50.42;98181.06;6020852;22;104267;-79
2021/01/04 07:11:45;;;;;;;;;19.75;18.25;;;;;11.89;50.56;98189.19;6024763;22;102740;-79
2021/01/04 07:14:33;;;;;;;;;23.50;18.75;;;;;11.91;50.47;98188.97;6029278;22;102749;-79
2021/01/04 07:17:33;;;;;;;;;17.25;16.75;;;;;11.89;50.36;98193.78;5919552;22;102817;-79
2021/01/04 07:20:28;;;;;;;;;20.75;17.25;;;;;11.88;50.62;98189.44;5947368;22;108183;-79
2021/01/04 07:23:25;;;;;;;;;22.00;18.25;;;;;11.88;50.14;98189.44;5938613;22;102621;-79
2021/01/04 07:26:07;;;;;;;;;22.25;18.50;;;;;11.89;50.70;98196.50;5887319;22;102758;-78
2021/01/04 07:28:41;;;;;;;;;23.25;20.00;;;;;11.86;50.47;98196.94;6024185;22;102513;-79
2021/01/04 07:31:30;;;;;;;;;22.75;19.50;;;;;11.88;50.59;98202.97;6021699;22;104560;-79
2021/01/04 07:34:19;;;;;;;;;17.75;15.75;;;;;11.87;50.98;98198.59;5921786;22;104425;-79
2021/01/04 07:37:01;;;;;;;;;25.25;20.50;;;;;11.85;51.36;98214.22;6004149;22;102911;-79
2021/01/04 07:39:45;;;;;;;;;19.00;18.00;;;;;11.85;51.46;98216.94;5958072;22;102761;-79
2021/01/04 07:42:53;;;;;;;;;24.25;20.00;;;;;11.86;51.29;98218.59;6006072;22;108482;-79
2021/01/04 07:45:28;;;;;;;;;24.50;19.25;;;;;11.85;50.90;98222.34;5920077;23;102854;-79
2021/01/04 07:48:16;;;;;;;;;25.25;22.00;;;;;11.85;51.00;98219.66;6021482;22;102833;-79
2021/01/04 07:50:43;;;;;;;;;21.50;19.75;;;;;11.85;51.07;98222.34;6030102;22;102506;-79
2021/01/04 07:53:48;;;;;;;;;21.25;18.50;;;;;11.85;51.22;98225.91;6032210;22;105263;-79
2021/01/04 07:56:36;;;;;;;;;23.50;18.25;;;;;11.83;51.15;98225.31;5936154;22;102866;-79
2021/01/04 07:59:15;;;;;;;;;24.00;18.00;;;;;11.84;51.66;98212.59;5952650;22;102720;-79
2021/01/04 08:02:00;;;;;;;;;20.00;17.50;;;;;11.84;51.61;98220.72;6032358;22;102817;-79
2021/01/04 08:04:49;;;;;;;;;22.25;17.25;;;;;11.83;51.62;98229.88;5861231;22;109290;-79
2021/01/04 08:07:26;;;;;;;;;23.25;20.25;;;;;11.82;51.19;98229.06;6032492;22;102531;-79
2021/01/04 08:10:03;;;;;;;;;22.75;20.75;;;;;11.84;51.18;98231.56;5950819;22;102768;-79
2021/01/04 08:12:59;;;;;;;;;24.75;19.50;;;;;11.84;51.60;98226.13;6005408;22;102800;-79
2021/01/04 08:15:47;;;;;;;;;20.00;19.00;;;;;11.83;51.43;98227.19;5927808;22;108912;-78
2021/01/04 08:18:16;;;;;;;;;27.50;20.25;;;;;11.82;51.62;98228.22;6007527;22;102703;-79
2021/01/04 08:21:02;;;;;;;;;17.75;16.00;;;;;11.83;51.64;98229.88;5980630;22;104153;-79
2021/01/04 08:23:51;;;;;;;;;25.75;22.25;;;;;11.83;51.43;98224.47;5906298;22;102955;-79
2021/01/04 08:26:35;;;;;;;;;23.00;18.50;;;;;11.83;51.49;98230.72;5979365;22;108681;-78
2021/01/04 08:29:06;;;;;;;;;25.75;21.50;;;;;11.83;51.08;98227.19;6008512;22;102817;-79
2021/01/04 08:31:41;;;;;;;;;25.25;19.25;;;;;11.83;51.51;98227.19;6031904;22;102827;-79
2021/01/04 08:34:10;;;;;;;;;17.00;16.50;;;;;11.81;51.50;98221.97;5959748;22;102851;-79
2021/01/04 08:36:56;;;;;;;;;18.00;16.50;;;;;11.83;51.19;98229.88;6029503;22;104251;-79
2021/01/04 08:39:23;;;;;;;;;18.75;15.75;;;;;11.84;51.72;98235.06;5959530;22;102861;-79
2021/01/04 08:42:03;;;;;;;;;23.75;18.75;;;;;11.84;51.61;98239.69;6029606;22;102452;-79
2021/01/04 08:44:33;;;;;;;;;24.25;20.75;;;;;11.82;51.22;98245.31;6031317;22;102819;-79
2021/01/04 08:47:16;;;;;;;;;21.25;21.25;;;;;11.84;51.59;98236.97;5958978;22;104338;-79
2021/01/04 08:49:45;;;;;;;;;25.75;18.50;;;;;11.84;51.40;98237.78;6002967;22;102658;-79
2021/01/04 08:52:14;;;;;;;;;20.25;19.50;;;;;11.84;51.81;98234.25;6029312;22;103735;-79
2021/01/04 08:54:41;;;;;;;;;24.75;21.00;;;;;11.84;51.24;98231.56;6023726;22;102828;-79
2021/01/04 08:57:21;;;;;;;;;24.00;20.00;;;;;11.84;51.45;98223.44;6034050;22;104156;-79
2021/01/04 08:59:56;;;;;;;;;21.50;19.75;;;;;11.85;51.55;98238.59;5996932;22;102750;-78
2021/01/04 09:02:35;;;;;;;;;20.50;17.50;;;;;11.83;51.85;98229.88;6026282;22;102833;-79
2021/01/04 09:05:04;;;;;;;;;22.75;20.50;;;;;11.83;51.92;98235.31;6003601;22;102815;-79
2021/01/04 09:07:31;;;;;;;;;26.00;22.00;;;;;11.83;52.01;98240.72;6030091;22;104238;-79
2021/01/04 09:10:14;;;;;;;;;21.00;16.25;;;;;11.83;51.71;98233.44;6027375;22;102912;-79
2021/01/04 09:12:56;;;;;;;;;28.00;21.00;;;;;11.84;51.46;98239.69;5941494;22;102940;-79
2021/01/04 09:15:23;;;;;;;;;18.25;17.50;;;;;11.83;51.18;98222.59;6008548;22;102864;-78
2021/01/04 09:17:59;;;;;;;;;24.00;18.50;;;;;11.84;51.49;98226.13;6002808;22;104454;-78
2021/01/04 09:20:46;;;;;;;;;22.75;19.50;;;;;11.85;51.77;98231.31;6031102;22;102460;-79
2021/01/04 09:23:19;;;;;;;;;24.00;22.00;;;;;11.85;51.55;98233.19;6000680;22;102762;-79
2021/01/04 09:25:50;;;;;;;;;23.50;19.00;;;;;11.88;51.02;98224.66;6032566;22;102582;-79
2021/01/04 09:28:19;;;;;;;;;24.50;21.00;;;;;11.91;50.98;98221.50;6023875;22;108414;-78
2021/01/04 09:30:46;;;;;;;;;19.75;18.75;;;;;11.92;51.14;98220.44;6031526;22;102448;-79
2021/01/04 09:33:17;;;;;;;;;24.25;18.25;;;;;11.94;51.36;98215.63;6030167;22;102419;-79
2021/01/04 09:35:43;;;;;;;;;18.25;17.00;;;;;11.95;51.06;98214.59;6029484;22;102626;-79
2021/01/04 09:38:22;;;;;;;;;22.75;20.75;;;;;11.95;50.81;98211.88;6025929;22;103924;-79
2021/01/04 09:40:50;;;;;;;;;24.50;22.25;;;;;11.96;51.00;98208.13;6029354;22;102753;-78
2021/01/04 09:43:20;;;;;;;;;23.00;18.75;;;;;11.97;51.15;98223.34;6031069;22;102752;-79
2021/01/04 09:45:47;;;;;;;;;22.25;19.50;;;;;11.96;51.75;98217.09;6029400;22;105130;-79
2021/01/04 09:48:32;;;;;;;;;26.25;21.25;;;;;11.96;51.30;98225.22;6034750;22;109221;-79
2021/01/04 09:51:05;;;;;;;;;26.00;19.50;;;;;11.98;51.15;98211.44;5908179;22;102844;-79
2021/01/04 09:53:33;;;;;;;;;21.50;17.75;;;;;11.98;51.04;98208.72;5953806;22;102580;-79
2021/01/04 09:56:08;;;;;;;;;27.50;22.00;;;;;11.98;50.86;98212.25;6008752;22;102958;-79
2021/01/04 09:58:34;;;;;;;;;19.50;16.25;;;;;11.99;51.52;98203.09;6030361;22;103813;-79
2021/01/04 10:01:13;;;;;;;;;23.75;18.50;;;;;12.01;51.51;98209.13;6028795;22;102714;-79
2021/01/04 10:03:49;;;;;;;;;22.00;19.00;;;;;12.00;51.13;98212.88;6030527;22;102428;-79
2021/01/04 10:06:16;;;;;;;;;18.50;18.25;;;;;12.01;51.35;98200.16;6006931;22;102768;-79
2021/01/04 10:08:44;;;;;;;;;22.50;19.25;;;;;12.02;50.93;98201.84;6004526;22;108925;-79
2021/01/04 10:11:17;;;;;;;;;23.00;18.50;;;;;12.03;51.75;98203.47;6029131;22;102712;-79
2021/01/04 10:13:44;;;;;;;;;20.00;18.00;;;;;12.04;50.72;98197.84;6030953;22;102750;-79
2021/01/04 10:16:21;;;;;;;;;19.00;16.25;;;;;12.05;51.02;98198.69;6030423;22;102791;-79
2021/01/04 10:18:52;;;;;;;;;24.00;19.75;;;;;12.06;51.14;98200.34;5970734;22;108902;-78
2021/01/04 10:21:24;;;;;;;;;22.25;18.75;;;;;12.06;51.54;98197.63;6004651;22;102772;-79
2021/01/04 10:24:15;;;;;;;;;18.25;16.25;;;;;12.06;51.23;98193.03;6003996;22;102539;-79
2021/01/04 10:26:52;;;;;;;;;22.75;21.00;;;;;12.07;50.95;98188.44;5934518;22;102930;-79
2021/01/04 10:29:28;;;;;;;;;20.25;16.50;;;;;12.07;50.89;98175.72;6029353;22;103946;-78
2021/01/04 10:32:11;;;;;;;;;21.25;17.00;;;;;12.07;51.32;98178.44;6003676;22;102514;-79
2021/01/04 10:34:42;;;;;;;;;28.50;22.75;;;;;12.07;51.18;98172.16;6029671;22;102749;-79
2021/01/04 10:37:30;;;;;;;;;27.75;22.75;;;;;12.07;51.21;98173.00;6006401;22;102856;-79
2021/01/04 10:40:02;;;;;;;;;24.75;19.00;;;;;12.07;51.81;98174.88;5929192;22;109097;-79
2021/01/04 10:42:29;;;;;;;;;20.50;17.75;;;;;12.07;51.05;98180.31;6006515;22;102847;-79
2021/01/04 10:45:15;;;;;;;;;20.25;17.75;;;;;12.08;51.26;98177.38;6002832;22;102890;-79
2021/01/04 10:48:14;;;;;;;;;23.25;20.00;;;;;12.09;51.43;98180.94;6004558;22;102711;-79
2021/01/04 10:50:47;;;;;;;;;27.00;22.25;;;;;12.09;51.08;98170.09;5925397;22;109020;-79
2021/01/04 10:53:35;;;;;;;;;21.50;18.50;;;;;12.09;51.12;98170.09;6029089;22;102672;-79
2021/01/04 10:56:17;;;;;;;;;23.00;20.75;;;;;12.10;51.35;98170.91;5931283;22;102872;-79
2021/01/04 10:58:46;;;;;;;;;15.00;12.00;;;;;12.11;51.13;98176.13;6031644;22;102625;-79
2021/01/04 11:01:22;;;;;;;;;23.50;22.00;;;;;12.08;51.16;98179.25;6031435;22;108477;-79
2021/01/04 11:03:52;;;;;;;;;23.00;20.00;;;;;12.11;51.32;98176.13;6000569;22;102750;-78
2021/01/04 11:06:26;;;;;;;;;25.50;18.50;;;;;12.11;51.64;98173.41;6004254;22;102623;-78
2021/01/04 11:08:52;;;;;;;;;20.75;18.00;;;;;12.12;51.48;98168.78;6005381;22;102737;-79
2021/01/04 11:11:31;;;;;;;;;24.75;19.00;;;;;12.12;51.05;98163.38;6028970;22;104463;-79
2021/01/04 11:14:18;;;;;;;;;24.25;22.25;;;;;12.11;51.21;98162.56;6006422;22;102824;-79
2021/01/04 11:17:09;;;;;;;;;19.25;17.00;;;;;12.12;51.52;98158.78;5858344;22;102639;-79
2021/01/04 11:19:36;;;;;;;;;25.50;19.25;;;;;12.12;51.63;98158.78;6029811;22;102444;-79
2021/01/04 11:22:25;;;;;;;;;30.50;21.75;;;;;12.12;51.13;98157.97;6027332;22;103879;-79
2021/01/04 11:24:52;;;;;;;;;23.50;20.00;;;;;12.12;50.99;98160.66;6003770;22;102734;-79
2021/01/04 11:27:19;;;;;;;;;23.75;19.50;;;;;12.13;51.27;98157.75;6026263;22;102598;-78
2021/01/04 11:29:46;;;;;;;;;19.00;18.00;;;;;12.12;51.43;98156.06;6034529;22;102730;-79
2021/01/04 11:32:13;;;;;;;;;24.50;21.25;;;;;12.13;51.21;98149.63;6031681;22;108415;-79
2021/01/04 11:34:44;;;;;;;;;22.00;19.00;;;;;12.12;51.45;98158.78;6028450;22;102812;-79
2021/01/04 11:37:11;;;;;;;;;24.75;19.50;;;;;12.14;51.46;98161.28;6024694;22;102689;-79
2021/01/04 11:39:38;;;;;;;;;20.50;20.00;;;;;12.14;51.34;98150.44;6034302;22;104453;-79
2021/01/04 11:42:06;;;;;;;;;24.50;21.00;;;;;12.13;51.33;98144.19;6029209;22;104062;-79
2021/01/04 11:44:33;;;;;;;;;17.75;16.75;;;;;12.15;50.75;98152.13;6013546;22;102886;-79
2021/01/04 11:47:00;;;;;;;;;19.75;17.00;;;;;12.14;51.07;98135.03;6002479;22;102675;-79
2021/01/04 11:49:27;;;;;;;;;18.75;18.50;;;;;12.14;50.87;98134.19;6030203;22;102515;-79
2021/01/04 11:51:55;;;;;;;;;25.50;19.25;;;;;12.13;51.08;98138.78;6029245;22;103900;-79
2021/01/04 11:54:21;;;;;;;;;22.00;18.50;;;;;12.16;51.21;98134.81;6002551;22;102871;-78